createdAt,value
2023-02-26T00:01:39.293Z,80.32
2023-02-26T00:04:08.077Z,79.59
2023-02-26T00:06:38.364Z,78.93
2023-02-26T00:09:07.029Z,83.09
2023-02-26T00:11:35.557Z,79.96
2023-02-26T00:14:03.930Z,79.29
2023-02-26T00:16:36.269Z,83.39
2023-02-26T00:19:06.969Z,82.33
2023-02-26T00:21:36.728Z,83.69
2023-02-26T00:24:06.697Z,83.93
2023-02-26T00:26:39.251Z,83.58
2023-02-26T00:29:07.315Z,83.44
2023-02-26T00:31:37.069Z,81.85
2023-02-26T00:34:05.292Z,82.94
2023-02-26T00:36:42.175Z,82.74
2023-02-26T00:39:31.812Z,83.09
2023-02-26T00:42:00.425Z,83.63
2023-02-26T00:44:28.946Z,82.63
2023-02-26T00:47:06.625Z,83.17
2023-02-26T00:49:49.702Z,83.76
2023-02-26T00:52:27.240Z,83.28
2023-02-26T00:54:54.987Z,83.41
2023-02-26T00:57:22.822Z,85.44
2023-02-26T00:59:50.525Z,85.48
2023-02-26T01:02:19.631Z,84.42
2023-02-26T01:04:48.423Z,84.97
2023-02-26T01:07:18.996Z,85.81
2023-02-26T01:09:47.296Z,85.48
2023-02-26T01:12:17.482Z,85.77
2023-02-26T01:14:47.312Z,85.96
2023-02-26T01:17:22.392Z,88.32
2023-02-26T01:19:54.343Z,88.55
2023-02-26T01:22:26.085Z,87.87
2023-02-26T01:25:00.800Z,89.04
2023-02-26T01:27:29.049Z,88.65
2023-02-26T01:29:57.138Z,89.11
2023-02-26T01:32:31.626Z,89.02
2023-02-26T01:35:03.231Z,89.37
2023-02-26T01:37:42.680Z,89.62
2023-02-26T01:40:44.397Z,90.12
2023-02-26T01:43:19.538Z,90.35
2023-02-26T01:45:58.195Z,90.79
2023-02-26T01:48:37.583Z,90.88
2023-02-26T01:51:06.240Z,91.94
2023-02-26T01:53:34.022Z,93.83
2023-02-26T01:56:06.360Z,92.78
2023-02-26T01:58:36.622Z,93.56
2023-02-26T02:01:05.292Z,93.57
2023-02-26T02:03:39.240Z,90.60
2023-02-26T02:06:09.568Z,91.51
2023-02-26T02:08:39.035Z,92.53
2023-02-26T02:11:12.262Z,91.52
2023-02-26T02:13:54.380Z,92.03
2023-02-26T02:16:33.342Z,92.19
2023-02-26T02:19:19.735Z,91.57
2023-02-26T02:22:09.866Z,92.57
2023-02-26T02:24:56.185Z,92.43
2023-02-26T02:27:37.085Z,92.49
2023-02-26T02:30:18.259Z,92.49
2023-02-26T02:32:52.266Z,92.30
2023-02-26T02:35:25.614Z,93.23
2023-02-26T02:37:59.685Z,94.44
2023-02-26T02:40:31.180Z,92.45
2023-02-26T02:43:03.262Z,92.75
2023-02-26T02:45:38.161Z,92.18
2023-02-26T02:48:13.718Z,94.73
2023-02-26T02:50:46.860Z,93.08
2023-02-26T02:53:20.044Z,94.76
2023-02-26T02:55:52.190Z,93.33
2023-02-26T02:58:24.728Z,94.99
2023-02-26T03:00:56.739Z,94.54
2023-02-26T03:03:31.304Z,93.62
2023-02-26T03:05:59.153Z,94.09
2023-02-26T03:08:29.659Z,93.86
2023-02-26T03:10:58.736Z,95.59
2023-02-26T03:13:27.695Z,94.15
2023-02-26T03:16:20.110Z,93.99
2023-02-26T03:19:00.934Z,93.42
2023-02-26T03:21:35.147Z,93.16
2023-02-26T03:24:10.800Z,92.81
2023-02-26T03:26:43.983Z,92.66
2023-02-26T03:29:21.057Z,92.95
2023-02-26T03:31:54.299Z,90.95
2023-02-26T03:34:33.627Z,90.69
2023-02-26T03:37:07.035Z,89.58
2023-02-26T03:39:43.339Z,91.90
2023-02-26T03:42:20.554Z,92.97
2023-02-26T03:45:01.120Z,92.77
2023-02-26T03:47:31.925Z,91.19
2023-02-26T03:50:08.232Z,92.23
2023-02-26T03:52:49.805Z,91.69
2023-02-26T03:55:50.220Z,91.82
2023-02-26T03:58:38.291Z,89.37
2023-02-26T04:01:24.275Z,87.56
2023-02-26T04:03:58.917Z,87.10
2023-02-26T04:06:29.015Z,86.95
2023-02-26T04:08:58.845Z,89.96
2023-02-26T04:11:29.060Z,90.70
2023-02-26T04:13:56.887Z,89.10
2023-02-26T04:16:28.009Z,89.01
2023-02-26T04:18:56.154Z,88.01
2023-02-26T04:21:24.735Z,88.18
2023-02-26T04:23:54.466Z,87.10
2023-02-26T04:26:23.389Z,89.56
2023-02-26T04:28:51.453Z,87.47
2023-02-26T04:31:19.661Z,90.65
2023-02-26T04:33:47.794Z,89.31
2023-02-26T04:36:16.273Z,89.81
2023-02-26T04:38:44.478Z,88.81
2023-02-26T04:41:13.978Z,89.16
2023-02-26T04:43:43.235Z,89.36
2023-02-26T04:46:25.056Z,88.35
2023-02-26T04:48:53.046Z,89.22
2023-02-26T04:51:22.122Z,88.37
2023-02-26T04:53:52.140Z,87.68
2023-02-26T04:56:22.140Z,89.23
2023-02-26T04:58:53.101Z,89.19
2023-02-26T05:01:26.260Z,89.25
2023-02-26T05:03:55.010Z,88.55
2023-02-26T05:06:22.921Z,88.70
2023-02-26T05:08:50.722Z,86.98
2023-02-26T05:11:19.700Z,86.81
2023-02-26T05:13:49.616Z,88.47
2023-02-26T05:16:18.332Z,87.91
2023-02-26T05:18:46.299Z,88.31
2023-02-26T05:21:14.203Z,89.02
2023-02-26T05:23:41.910Z,88.34
2023-02-26T05:26:09.832Z,85.85
2023-02-26T05:28:38.162Z,85.19
2023-02-26T05:31:08.041Z,85.42
2023-02-26T05:33:36.399Z,85.58
2023-02-26T05:36:04.277Z,86.44
2023-02-26T05:38:32.030Z,85.50
2023-02-26T05:41:00.653Z,86.63
2023-02-26T05:43:28.995Z,85.93
2023-02-26T05:45:56.893Z,85.66
2023-02-26T05:48:26.070Z,86.09
2023-02-26T05:50:53.953Z,86.84
2023-02-26T05:53:21.941Z,89.33
2023-02-26T05:55:50.408Z,87.89
2023-02-26T05:58:18.151Z,88.32
2023-02-26T06:00:46.378Z,86.97
2023-02-26T06:03:14.929Z,88.07
2023-02-26T06:05:44.127Z,88.49
2023-02-26T06:08:12.121Z,88.14
2023-02-26T06:10:39.979Z,87.66
2023-02-26T06:13:07.700Z,87.07
2023-02-26T06:15:35.656Z,88.82
2023-02-26T06:18:03.590Z,89.05
2023-02-26T06:20:31.577Z,90.74
2023-02-26T06:23:00.934Z,88.85
2023-02-26T06:25:28.654Z,90.31
2023-02-26T06:27:56.448Z,88.49
2023-02-26T06:30:24.818Z,89.22
2023-02-26T06:32:52.791Z,88.69
2023-02-26T06:35:20.585Z,89.69
2023-02-26T06:37:48.354Z,87.10
2023-02-26T06:40:18.817Z,86.44
2023-02-26T06:42:46.617Z,86.11
2023-02-26T06:45:14.424Z,87.93
2023-02-26T06:47:42.152Z,86.58
2023-02-26T06:50:11.398Z,87.22
2023-02-26T06:52:39.462Z,85.87
2023-02-26T06:55:08.228Z,86.21
2023-02-26T06:57:37.665Z,88.08
2023-02-26T07:00:06.939Z,86.79
2023-02-26T07:02:35.045Z,87.67
2023-02-26T07:05:02.833Z,88.98
2023-02-26T07:07:30.636Z,86.90
2023-02-26T07:09:58.434Z,87.88
2023-02-26T07:12:26.450Z,89.85
2023-02-26T07:14:55.527Z,88.90
2023-02-26T07:17:23.657Z,89.27
2023-02-26T07:19:52.941Z,89.37
2023-02-26T07:22:22.358Z,89.16
2023-02-26T07:24:51.321Z,87.47
2023-02-26T07:27:19.455Z,87.78
2023-02-26T07:29:47.297Z,88.31
2023-02-26T07:32:16.425Z,88.30
2023-02-26T07:34:44.314Z,87.81
2023-02-26T07:37:12.057Z,86.52
2023-02-26T07:39:39.777Z,86.20
2023-02-26T07:42:10.493Z,88.41
2023-02-26T07:44:42.826Z,87.09
2023-02-26T07:47:11.406Z,87.52
2023-02-26T07:49:40.762Z,86.66
2023-02-26T07:52:08.998Z,85.01
2023-02-26T07:54:37.506Z,84.60
2023-02-26T07:57:06.129Z,84.58
2023-02-26T07:59:33.917Z,86.63
2023-02-26T08:02:01.934Z,84.75
2023-02-26T08:04:29.937Z,84.85
2023-02-26T08:07:03.529Z,88.93
2023-02-26T08:09:31.781Z,87.35
2023-02-26T08:11:59.694Z,86.30
2023-02-26T08:14:27.590Z,87.04
2023-02-26T08:16:55.342Z,87.66
2023-02-26T08:19:23.130Z,87.85
2023-02-26T08:21:50.907Z,87.83
2023-02-26T08:24:23.486Z,85.54
2023-02-26T08:26:51.705Z,84.22
2023-02-26T08:29:19.905Z,84.57
2023-02-26T08:31:48.002Z,84.30
2023-02-26T08:34:16.006Z,84.33
2023-02-26T08:36:46.089Z,83.23
2023-02-26T08:39:14.001Z,82.43
2023-02-26T08:41:43.295Z,83.47
2023-02-26T08:44:11.559Z,82.86
2023-02-26T08:46:39.379Z,81.03
2023-02-26T08:49:07.418Z,81.70
2023-02-26T08:51:35.258Z,83.38
2023-02-26T08:54:03.160Z,79.09
2023-02-26T08:56:32.903Z,78.79
2023-02-26T08:59:02.040Z,79.68
2023-02-26T09:01:30.076Z,78.19
2023-02-26T09:03:58.345Z,77.38
2023-02-26T09:06:26.299Z,76.86
2023-02-26T09:08:54.312Z,77.04
2023-02-26T09:11:22.149Z,76.71
2023-02-26T09:13:49.877Z,76.21
2023-02-26T09:16:19.048Z,75.74
2023-02-26T09:18:46.812Z,75.85
2023-02-26T09:21:14.475Z,74.13
2023-02-26T09:23:42.200Z,74.64
2023-02-26T09:26:10.353Z,73.38
2023-02-26T09:28:38.096Z,72.66
2023-02-26T09:31:07.143Z,71.78
2023-02-26T09:33:36.519Z,71.61
2023-02-26T09:36:04.692Z,71.67
2023-02-26T09:38:32.563Z,71.48
2023-02-26T09:41:03.400Z,69.25
2023-02-26T09:43:57.240Z,69.00
2023-02-26T09:46:36.221Z,68.00
2023-02-26T09:49:15.780Z,69.32
2023-02-26T09:51:44.964Z,66.65
2023-02-26T09:54:19.447Z,66.29
2023-02-26T09:56:48.214Z,65.54
2023-02-26T09:59:16.084Z,64.76
2023-02-26T10:01:50.597Z,64.32
2023-02-26T10:04:28.235Z,63.37
2023-02-26T10:07:10.086Z,62.72
2023-02-26T10:09:56.205Z,60.75
2023-02-26T10:12:26.663Z,60.84
2023-02-26T10:15:01.135Z,60.02
2023-02-26T10:17:33.632Z,58.97
2023-02-26T10:20:09.846Z,59.04
2023-02-26T10:22:43.609Z,56.84
2023-02-26T10:25:16.324Z,56.87
2023-02-26T10:27:52.554Z,57.35
2023-02-26T10:30:27.894Z,55.54
2023-02-26T10:33:01.032Z,56.10
2023-02-26T10:35:37.715Z,56.19
2023-02-26T10:38:12.479Z,56.09
2023-02-26T10:40:45.724Z,55.29
2023-02-26T10:43:19.520Z,55.15
2023-02-26T10:46:03.584Z,56.24
2023-02-26T10:48:48.080Z,55.01
2023-02-26T10:51:19.762Z,55.41
2023-02-26T10:53:53.858Z,54.17
2023-02-26T10:56:25.934Z,54.10
2023-02-26T10:58:54.929Z,52.25
2023-02-26T11:01:25.240Z,51.17
2023-02-26T11:03:58.899Z,52.37
2023-02-26T11:06:33.354Z,51.19
2023-02-26T11:09:03.595Z,49.72
2023-02-26T11:11:52.120Z,49.58
2023-02-26T11:14:21.839Z,48.59
2023-02-26T11:16:53.835Z,45.94
2023-02-26T11:19:28.478Z,45.45
2023-02-26T11:21:58.717Z,45.23
2023-02-26T11:24:32.446Z,43.44
2023-02-26T11:27:04.050Z,44.39
2023-02-26T11:29:38.413Z,43.54
2023-02-26T11:32:08.027Z,44.21
2023-02-26T11:34:36.612Z,44.32
2023-02-26T11:37:06.790Z,42.15
2023-02-26T11:39:37.290Z,41.16
2023-02-26T11:42:05.780Z,41.49
2023-02-26T11:44:38.645Z,41.74
2023-02-26T11:47:12.812Z,43.51
2023-02-26T11:49:43.974Z,41.50
2023-02-26T11:52:22.777Z,41.70
2023-02-26T11:54:55.263Z,39.52
2023-02-26T11:57:26.832Z,40.73
2023-02-26T11:59:56.040Z,42.35
2023-02-26T12:02:25.622Z,41.11
2023-02-26T12:04:56.792Z,42.83
2023-02-26T12:07:26.399Z,41.23
2023-02-26T12:09:56.785Z,41.56
2023-02-26T12:12:46.542Z,42.05
2023-02-26T12:15:31.959Z,41.41
2023-02-26T12:18:31.751Z,40.42
2023-02-26T12:21:12.078Z,41.11
2023-02-26T12:24:00.875Z,40.16
2023-02-26T12:26:54.776Z,40.34
2023-02-26T12:29:49.666Z,41.98
2023-02-26T12:32:52.599Z,42.57
2023-02-26T12:35:38.429Z,42.57
2023-02-26T12:38:36.699Z,42.73
2023-02-26T12:41:25.661Z,43.82
2023-02-26T12:43:56.136Z,43.63
2023-02-26T12:46:36.352Z,42.74
2023-02-26T12:49:28.334Z,42.80
2023-02-26T12:52:22.462Z,42.49
2023-02-26T12:55:06.384Z,41.57
2023-02-26T12:58:15.230Z,41.90
2023-02-26T13:00:57.428Z,41.85
2023-02-26T13:03:48.089Z,43.11
2023-02-26T13:06:55.446Z,42.63
2023-02-26T13:09:39.525Z,43.21
2023-02-26T13:12:20.640Z,43.38
2023-02-26T13:14:59.778Z,43.16
2023-02-26T13:17:35.864Z,43.48
2023-02-26T13:20:15.135Z,43.43
2023-02-26T13:22:49.158Z,42.94
2023-02-26T13:25:25.376Z,41.61
2023-02-26T13:28:00.823Z,42.03
2023-02-26T13:30:35.549Z,41.35
2023-02-26T13:33:04.392Z,40.83
2023-02-26T13:35:38.624Z,41.49
2023-02-26T13:38:16.113Z,41.42
2023-02-26T13:41:03.600Z,41.42
2023-02-26T13:43:53.311Z,42.59
2023-02-26T13:46:50.043Z,42.59
2023-02-26T13:49:21.429Z,42.48
2023-02-26T13:51:51.490Z,42.73
2023-02-26T13:54:36.186Z,41.94
2023-02-26T13:57:10.511Z,42.06
2023-02-26T13:59:58.276Z,43.17
2023-02-26T14:02:53.974Z,42.38
2023-02-26T14:05:58.916Z,41.34
2023-02-26T14:08:53.787Z,40.89
2023-02-26T14:11:45.864Z,41.71
2023-02-26T14:14:32.720Z,42.43
2023-02-26T14:17:27.042Z,42.15
2023-02-26T14:20:31.904Z,41.35
2023-02-26T14:23:31.309Z,39.39
2023-02-26T14:26:07.243Z,40.91
2023-02-26T14:29:09.605Z,40.17
2023-02-26T14:31:55.309Z,40.24
2023-02-26T14:34:26.627Z,39.75
2023-02-26T14:36:57.600Z,40.92
2023-02-26T14:39:31.349Z,41.09
2023-02-26T14:42:03.288Z,41.83
2023-02-26T14:44:35.880Z,43.25
2023-02-26T14:47:15.089Z,42.02
2023-02-26T14:49:47.716Z,42.79
2023-02-26T14:52:43.535Z,43.88
2023-02-26T14:55:32.279Z,41.87
2023-02-26T14:58:18.558Z,41.99
2023-02-26T15:00:55.148Z,44.79
2023-02-26T15:03:56.961Z,43.35
2023-02-26T15:06:39.990Z,43.05
2023-02-26T15:09:21.457Z,41.57
2023-02-26T15:12:03.804Z,42.18
2023-02-26T15:14:50.665Z,41.80
2023-02-26T15:17:31.136Z,41.72
2023-02-26T15:20:29.565Z,42.39
2023-02-26T15:23:21.406Z,43.09
2023-02-26T15:26:06.416Z,42.50
2023-02-26T15:28:38.012Z,41.96
2023-02-26T15:31:07.675Z,42.66
2023-02-26T15:33:35.957Z,42.13
2023-02-26T15:36:10.006Z,42.34
2023-02-26T15:38:42.251Z,42.68
2023-02-26T15:41:10.362Z,44.18
2023-02-26T15:43:42.548Z,44.63
2023-02-26T15:46:11.894Z,42.93
2023-02-26T15:48:45.083Z,43.33
2023-02-26T15:51:19.829Z,43.13
2023-02-26T15:53:49.960Z,43.33
2023-02-26T15:56:23.841Z,43.85
2023-02-26T15:58:55.799Z,44.43
2023-02-26T16:01:28.075Z,43.90
2023-02-26T16:03:59.119Z,44.81
2023-02-26T16:06:29.639Z,45.22
2023-02-26T16:08:58.144Z,44.90
2023-02-26T16:11:29.792Z,45.91
2023-02-26T16:13:59.361Z,45.63
2023-02-26T16:16:38.733Z,46.69
2023-02-26T16:19:07.920Z,45.57
2023-02-26T16:21:37.614Z,47.56
2023-02-26T16:24:08.151Z,46.14
2023-02-26T16:26:39.976Z,47.99
2023-02-26T16:29:16.376Z,47.30
2023-02-26T16:31:46.987Z,47.08
2023-02-26T16:34:29.049Z,46.51
2023-02-26T16:36:57.513Z,47.44
2023-02-26T16:39:56.357Z,47.89
2023-02-26T16:42:34.203Z,47.03
2023-02-26T16:45:18.130Z,47.51
2023-02-26T16:47:48.920Z,47.59
2023-02-26T16:50:19.424Z,48.46
2023-02-26T16:52:54.514Z,48.60
2023-02-26T16:55:22.943Z,48.16
2023-02-26T16:57:51.417Z,49.29
2023-02-26T17:00:30.871Z,48.49
2023-02-26T17:03:08.288Z,48.10
2023-02-26T17:05:40.281Z,48.87
2023-02-26T17:08:15.294Z,49.64
2023-02-26T17:10:48.100Z,48.28
2023-02-26T17:13:18.457Z,47.26
2023-02-26T17:15:49.167Z,48.06
2023-02-26T17:18:17.051Z,49.83
2023-02-26T17:20:45.695Z,49.52
2023-02-26T17:23:16.414Z,50.04
2023-02-26T17:25:49.732Z,50.05
2023-02-26T17:28:22.818Z,49.23
2023-02-26T17:30:52.560Z,50.38
2023-02-26T17:33:23.621Z,50.19
2023-02-26T17:35:52.952Z,51.60
2023-02-26T17:38:20.706Z,49.90
2023-02-26T17:40:48.715Z,50.71
2023-02-26T17:43:16.868Z,49.95
2023-02-26T17:45:44.729Z,50.71
2023-02-26T17:48:15.892Z,50.60
2023-02-26T17:50:56.042Z,49.41
2023-02-26T17:53:27.314Z,51.40
2023-02-26T17:55:56.484Z,51.11
2023-02-26T17:58:28.928Z,51.82
2023-02-26T18:00:56.887Z,51.29
2023-02-26T18:03:26.206Z,50.81
2023-02-26T18:05:55.774Z,50.79
2023-02-26T18:08:26.167Z,51.54
2023-02-26T18:11:01.307Z,51.98
2023-02-26T18:13:30.080Z,51.84
2023-02-26T18:16:02.816Z,51.28
2023-02-26T18:18:33.444Z,51.46
2023-02-26T18:21:02.199Z,51.33
2023-02-26T18:23:30.065Z,51.14
2023-02-26T18:25:57.893Z,51.62
2023-02-26T18:28:28.200Z,52.36
2023-02-26T18:30:57.294Z,53.03
2023-02-26T18:33:25.968Z,53.39
2023-02-26T18:35:57.734Z,53.31
2023-02-26T18:38:31.790Z,54.32
2023-02-26T18:41:02.113Z,54.29
2023-02-26T18:43:30.494Z,54.44
2023-02-26T18:46:01.479Z,55.93
2023-02-26T18:48:29.799Z,56.53
2023-02-26T18:50:59.505Z,56.67
2023-02-26T18:53:27.758Z,56.49
2023-02-26T18:55:58.166Z,56.85
2023-02-26T18:58:26.343Z,58.01
2023-02-26T19:00:55.711Z,58.41
2023-02-26T19:03:23.532Z,59.35
2023-02-26T19:06:03.477Z,59.35
2023-02-26T19:08:31.716Z,59.41
2023-02-26T19:10:59.598Z,60.41
2023-02-26T19:13:28.010Z,59.71
2023-02-26T19:15:57.708Z,60.93
2023-02-26T19:18:25.469Z,60.69
2023-02-26T19:20:53.483Z,60.84
2023-02-26T19:23:22.867Z,61.56
2023-02-26T19:25:52.477Z,62.50
2023-02-26T19:28:20.413Z,62.06
2023-02-26T19:30:48.273Z,62.65
2023-02-26T19:33:20.392Z,62.06
2023-02-26T19:35:48.427Z,61.85
2023-02-26T19:38:16.176Z,62.13
2023-02-26T19:40:48.296Z,62.74
2023-02-26T19:43:16.039Z,62.37
2023-02-26T19:45:43.772Z,61.78
2023-02-26T19:48:11.540Z,63.21
2023-02-26T19:50:39.266Z,62.59
2023-02-26T19:53:09.985Z,63.07
2023-02-26T19:55:39.618Z,62.83
2023-02-26T19:58:08.916Z,62.08
2023-02-26T20:00:36.762Z,62.19
2023-02-26T20:03:05.160Z,63.24
2023-02-26T20:05:33.382Z,63.69
2023-02-26T20:08:01.169Z,63.44
2023-02-26T20:10:32.093Z,63.33
2023-02-26T20:12:59.926Z,63.87
2023-02-26T20:15:29.050Z,63.23
2023-02-26T20:17:56.883Z,63.04
2023-02-26T20:20:24.793Z,63.10
2023-02-26T20:22:52.567Z,63.90
2023-02-26T20:25:23.288Z,64.71
2023-02-26T20:27:51.730Z,63.33
2023-02-26T20:30:20.329Z,63.60
2023-02-26T20:32:49.718Z,63.43
2023-02-26T20:35:17.838Z,63.38
2023-02-26T20:37:45.662Z,62.55
2023-02-26T20:40:14.022Z,64.34
2023-02-26T20:42:41.886Z,65.18
2023-02-26T20:45:10.146Z,64.32
2023-02-26T20:47:38.023Z,64.73
2023-02-26T20:50:09.663Z,64.41
2023-02-26T20:52:37.469Z,64.40
2023-02-26T20:55:05.993Z,63.83
2023-02-26T20:57:35.416Z,64.71
2023-02-26T21:00:10.165Z,64.96
2023-02-26T21:02:38.512Z,66.44
2023-02-26T21:05:09.084Z,64.86
2023-02-26T21:07:36.989Z,66.20
2023-02-26T21:10:05.244Z,66.89
2023-02-26T21:12:32.994Z,67.08
2023-02-26T21:15:00.799Z,67.19
2023-02-26T21:17:28.584Z,66.65
2023-02-26T21:19:56.397Z,66.63
2023-02-26T21:22:25.513Z,67.27
2023-02-26T21:24:53.289Z,66.57
2023-02-26T21:27:21.517Z,67.46
2023-02-26T21:29:49.277Z,67.85
2023-02-26T21:32:17.076Z,68.21
2023-02-26T21:34:44.896Z,68.47
2023-02-26T21:37:13.394Z,68.38
2023-02-26T21:39:42.478Z,70.31
2023-02-26T21:42:13.484Z,68.77
2023-02-26T21:44:41.514Z,68.56
2023-02-26T21:47:09.265Z,68.81
2023-02-26T21:49:37.271Z,70.18
2023-02-26T21:52:07.062Z,70.28
2023-02-26T21:54:35.138Z,70.12
2023-02-26T21:57:06.284Z,71.02
2023-02-26T21:59:34.171Z,72.28
2023-02-26T22:02:02.302Z,72.22
2023-02-26T22:04:30.075Z,72.46
2023-02-26T22:06:58.121Z,72.89
2023-02-26T22:09:26.095Z,72.98
2023-02-26T22:11:56.154Z,72.93
2023-02-26T22:14:27.776Z,73.58
2023-02-26T22:16:57.554Z,74.52
2023-02-26T22:19:25.596Z,75.00
2023-02-26T22:21:53.743Z,75.42
2023-02-26T22:24:21.929Z,75.70
2023-02-26T22:26:49.891Z,75.42
2023-02-26T22:29:19.357Z,76.74
2023-02-26T22:31:51.079Z,76.51
2023-02-26T22:34:21.147Z,76.66
2023-02-26T22:36:49.332Z,76.67
2023-02-26T22:39:17.393Z,75.98
2023-02-26T22:41:48.169Z,75.23
2023-02-26T22:44:16.345Z,75.48
2023-02-26T22:46:44.855Z,76.21
2023-02-26T22:49:15.295Z,76.11
2023-02-26T22:51:46.291Z,76.72
2023-02-26T22:54:15.868Z,75.42
2023-02-26T22:56:48.352Z,75.25
2023-02-26T22:59:19.243Z,75.92
2023-02-26T23:01:47.273Z,76.95
2023-02-26T23:04:18.933Z,76.12
2023-02-26T23:06:46.720Z,76.50
2023-02-26T23:09:26.424Z,76.09
2023-02-26T23:12:02.530Z,76.60
2023-02-26T23:14:30.423Z,76.50
2023-02-26T23:17:02.349Z,77.43
2023-02-26T23:19:35.021Z,77.53
2023-02-26T23:22:03.638Z,77.32
2023-02-26T23:24:33.843Z,79.12
2023-02-26T23:27:02.046Z,77.92
2023-02-26T23:29:37.280Z,77.96
2023-02-26T23:32:06.121Z,76.22
2023-02-26T23:34:40.765Z,77.02
2023-02-26T23:37:08.887Z,76.72
2023-02-26T23:39:36.713Z,77.60
2023-02-26T23:42:04.914Z,77.99
2023-02-26T23:44:38.154Z,77.94
2023-02-26T23:47:06.606Z,79.52
2023-02-26T23:49:38.720Z,78.48
2023-02-26T23:52:06.520Z,78.83
2023-02-26T23:54:34.714Z,79.04
2023-02-26T23:57:03.064Z,79.19
2023-02-26T23:59:31.194Z,80.98
